Terminal Aerodrome Forecast
Issued by NWS

Home | Current Version | Previous Version | Text Only | Print | Product List | Glossary On
Versions: 1 2 3 4 5 6 7 8 9 10 11 12 13 14 15 16 17 18 19 20 21 22 23 24 25
000
FTUS46 KMTR 041131
TAFSFO
TAF
KSFO 041131Z 0412/0518 27007KT P6SM FEW007 SCT011 OVC150
      TEMPO 0412/0416 BKN011
     FM041700 27010KT P6SM VCSH SCT012 BKN080
     FM042100 28013KT P6SM VCSH FEW012 SCT200
     FM050400 28010KT P6SM FEW012 BKN100
     FM050800 23005KT P6SM BKN012 OVC100=

USA.gov is the U.S. government's official web portal to all federal, state and local government web resources and services.